sensor_id;sensor_type;location;lat;lon;timestamp;P1;durP1;ratioP1;P2;durP2;ratioP2
70313;SDS011;57725;47.526;18.986;2023-01-01T00:02:07;41.30;;;27.67;;
70313;SDS011;57725;47.526;18.986;2023-01-01T00:04:32;40.20;;;27.63;;
70313;SDS011;57725;47.526;18.986;2023-01-01T00:07:01;41.97;;;27.02;;
70313;SDS011;57725;47.526;18.986;2023-01-01T00:09:26;40.53;;;27.45;;
70313;SDS011;57725;47.526;18.986;2023-01-01T00:12:10;33.22;;;22.15;;
70313;SDS011;57725;47.526;18.986;2023-01-01T00:14:35;41.78;;;27.92;;
70313;SDS011;57725;47.526;18.986;2023-01-01T00:17:03;43.75;;;28.25;;
70313;SDS011;57725;47.526;18.986;2023-01-01T00:19:31;42.67;;;29.15;;
70313;SDS011;57725;47.526;18.986;2023-01-01T00:21:56;44.85;;;28.70;;
70313;SDS011;57725;47.526;18.986;2023-01-01T00:24:22;44.17;;;28.90;;
70313;SDS011;57725;47.526;18.986;2023-01-01T00:26:47;44.45;;;29.15;;
70313;SDS011;57725;47.526;18.986;2023-01-01T00:29:12;46.83;;;29.92;;
70313;SDS011;57725;47.526;18.986;2023-01-01T00:31:38;46.53;;;30.17;;
70313;SDS011;57725;47.526;18.986;2023-01-01T00:34:03;42.72;;;29.00;;
70313;SDS011;57725;47.526;18.986;2023-01-01T00:36:29;43.90;;;29.83;;
70313;SDS011;57725;47.526;18.986;2023-01-01T00:38:55;44.13;;;29.75;;
70313;SDS011;57725;47.526;18.986;2023-01-01T00:41:20;45.95;;;30.45;;
70313;SDS011;57725;47.526;18.986;2023-01-01T00:43:46;44.63;;;30.05;;
70313;SDS011;57725;47.526;18.986;2023-01-01T00:46:11;45.00;;;29.73;;
70313;SDS011;57725;47.526;18.986;2023-01-01T00:48:37;45.28;;;29.73;;
70313;SDS011;57725;47.526;18.986;2023-01-01T00:51:03;44.95;;;29.08;;
70313;SDS011;57725;47.526;18.986;2023-01-01T00:53:29;49.35;;;32.30;;
70313;SDS011;57725;47.526;18.986;2023-01-01T00:55:54;45.97;;;30.90;;
70313;SDS011;57725;47.526;18.986;2023-01-01T00:58:20;47.45;;;30.90;;
70313;SDS011;57725;47.526;18.986;2023-01-01T01:00:48;50.08;;;31.98;;
70313;SDS011;57725;47.526;18.986;2023-01-01T01:03:14;48.92;;;31.25;;
70313;SDS011;57725;47.526;18.986;2023-01-01T01:08:27;47.78;;;30.15;;
70313;SDS011;57725;47.526;18.986;2023-01-01T01:10:53;49.15;;;31.80;;
70313;SDS011;57725;47.526;18.986;2023-01-01T01:13:20;45.50;;;30.73;;
70313;SDS011;57725;47.526;18.986;2023-01-01T01:15:46;47.38;;;31.55;;
70313;SDS011;57725;47.526;18.986;2023-01-01T01:18:14;46.53;;;30.88;;
70313;SDS011;57725;47.526;18.986;2023-01-01T01:20:40;46.00;;;32.08;;
70313;SDS011;57725;47.526;18.986;2023-01-01T01:23:05;47.20;;;31.45;;
70313;SDS011;57725;47.526;18.986;2023-01-01T01:25:30;48.35;;;32.63;;
70313;SDS011;57725;47.526;18.986;2023-01-01T01:27:56;49.72;;;32.53;;
70313;SDS011;57725;47.526;18.986;2023-01-01T01:30:21;50.70;;;32.20;;
70313;SDS011;57725;47.526;18.986;2023-01-01T01:32:47;48.65;;;32.97;;
70313;SDS011;57725;47.526;18.986;2023-01-01T01:35:12;47.28;;;31.42;;
70313;SDS011;57725;47.526;18.986;2023-01-01T01:37:37;46.90;;;31.85;;
70313;SDS011;57725;47.526;18.986;2023-01-01T01:40:03;48.28;;;32.10;;
70313;SDS011;57725;47.526;18.986;2023-01-01T01:42:29;48.67;;;32.17;;
70313;SDS011;57725;47.526;18.986;2023-01-01T01:44:55;48.10;;;32.25;;
70313;SDS011;57725;47.526;18.986;2023-01-01T01:47:41;47.17;;;32.40;;
70313;SDS011;57725;47.526;18.986;2023-01-01T01:55:23;49.80;;;31.85;;
70313;SDS011;57725;47.526;18.986;2023-01-01T01:57:52;49.85;;;33.78;;
70313;SDS011;57725;47.526;18.986;2023-01-01T02:00:17;52.28;;;34.30;;
70313;SDS011;57725;47.526;18.986;2023-01-01T02:02:57;49.88;;;33.45;;
70313;SDS011;57725;47.526;18.986;2023-01-01T02:05:28;51.45;;;33.50;;
70313;SDS011;57725;47.526;18.986;2023-01-01T02:07:55;52.47;;;34.38;;
70313;SDS011;57725;47.526;18.986;2023-01-01T02:10:22;50.35;;;34.20;;
70313;SDS011;57725;47.526;18.986;2023-01-01T02:12:48;54.35;;;34.45;;
70313;SDS011;57725;47.526;18.986;2023-01-01T02:15:13;51.53;;;32.55;;
70313;SDS011;57725;47.526;18.986;2023-01-01T02:17:43;52.88;;;34.60;;
70313;SDS011;57725;47.526;18.986;2023-01-01T02:28:35;56.83;;;35.20;;
70313;SDS011;57725;47.526;18.986;2023-01-01T02:31:10;53.20;;;34.97;;
70313;SDS011;57725;47.526;18.986;2023-01-01T02:33:41;52.67;;;34.95;;
70313;SDS011;57725;47.526;18.986;2023-01-01T02:36:09;54.97;;;35.05;;
70313;SDS011;57725;47.526;18.986;2023-01-01T02:38:36;50.47;;;34.30;;
70313;SDS011;57725;47.526;18.986;2023-01-01T02:41:06;50.42;;;34.83;;
70313;SDS011;57725;47.526;18.986;2023-01-01T02:43:36;50.42;;;34.15;;
70313;SDS011;57725;47.526;18.986;2023-01-01T02:46:06;56.03;;;36.42;;
70313;SDS011;57725;47.526;18.986;2023-01-01T02:48:37;56.72;;;36.80;;
70313;SDS011;57725;47.526;18.986;2023-01-01T02:51:10;54.15;;;35.97;;
70313;SDS011;57725;47.526;18.986;2023-01-01T02:59:14;58.00;;;35.72;;
70313;SDS011;57725;47.526;18.986;2023-01-01T03:02:18;58.08;;;35.58;;
70313;SDS011;57725;47.526;18.986;2023-01-01T03:10:04;54.67;;;35.75;;
70313;SDS011;57725;47.526;18.986;2023-01-01T03:15:41;59.22;;;36.25;;
70313;SDS011;57725;47.526;18.986;2023-01-01T03:18:26;55.83;;;37.75;;
70313;SDS011;57725;47.526;18.986;2023-01-01T03:20:57;56.10;;;35.72;;
70313;SDS011;57725;47.526;18.986;2023-01-01T03:23:30;56.40;;;37.78;;
70313;SDS011;57725;47.526;18.986;2023-01-01T03:26:11;58.17;;;36.83;;
70313;SDS011;57725;47.526;18.986;2023-01-01T03:28:43;55.60;;;35.67;;
70313;SDS011;57725;47.526;18.986;2023-01-01T03:31:13;56.10;;;35.90;;
70313;SDS011;57725;47.526;18.986;2023-01-01T03:33:59;57.67;;;37.65;;
70313;SDS011;57725;47.526;18.986;2023-01-01T03:36:31;53.95;;;36.58;;
70313;SDS011;57725;47.526;18.986;2023-01-01T03:39:09;57.50;;;36.90;;
70313;SDS011;57725;47.526;18.986;2023-01-01T03:41:39;58.70;;;38.75;;
70313;SDS011;57725;47.526;18.986;2023-01-01T03:44:19;56.67;;;38.50;;
70313;SDS011;57725;47.526;18.986;2023-01-01T03:46:51;57.97;;;37.28;;
70313;SDS011;57725;47.526;18.986;2023-01-01T03:49:17;58.47;;;38.75;;
70313;SDS011;57725;47.526;18.986;2023-01-01T03:59:51;59.65;;;38.33;;
70313;SDS011;57725;47.526;18.986;2023-01-01T04:02:18;61.72;;;38.15;;
70313;SDS011;57725;47.526;18.986;2023-01-01T04:04:47;60.38;;;37.38;;
70313;SDS011;57725;47.526;18.986;2023-01-01T04:07:13;60.33;;;38.20;;
70313;SDS011;57725;47.526;18.986;2023-01-01T04:09:39;59.28;;;39.42;;
70313;SDS011;57725;47.526;18.986;2023-01-01T04:12:11;61.78;;;38.63;;
70313;SDS011;57725;47.526;18.986;2023-01-01T04:14:37;62.50;;;40.22;;
70313;SDS011;57725;47.526;18.986;2023-01-01T04:17:06;63.38;;;39.97;;
70313;SDS011;57725;47.526;18.986;2023-01-01T04:19:33;64.60;;;40.05;;
70313;SDS011;57725;47.526;18.986;2023-01-01T04:21:59;62.15;;;39.25;;
70313;SDS011;57725;47.526;18.986;2023-01-01T04:24:24;61.53;;;39.53;;
70313;SDS011;57725;47.526;18.986;2023-01-01T04:26:51;64.63;;;40.58;;
70313;SDS011;57725;47.526;18.986;2023-01-01T04:29:17;62.35;;;39.05;;
70313;SDS011;57725;47.526;18.986;2023-01-01T04:31:43;64.28;;;39.78;;
70313;SDS011;57725;47.526;18.986;2023-01-01T04:34:08;62.33;;;39.08;;
70313;SDS011;57725;47.526;18.986;2023-01-01T04:36:33;61.03;;;39.00;;
70313;SDS011;57725;47.526;18.986;2023-01-01T04:38:59;64.13;;;40.30;;
70313;SDS011;57725;47.526;18.986;2023-01-01T04:41:25;61.83;;;40.20;;
70313;SDS011;57725;47.526;18.986;2023-01-01T04:43:50;63.97;;;39.75;;
70313;SDS011;57725;47.526;18.986;2023-01-01T04:46:16;64.15;;;40.58;;
70313;SDS011;57725;47.526;18.986;2023-01-01T04:48:43;63.28;;;40.17;;
70313;SDS011;57725;47.526;18.986;2023-01-01T04:51:09;67.05;;;39.95;;
70313;SDS011;57725;47.526;18.986;2023-01-01T04:53:36;65.35;;;40.95;;
70313;SDS011;57725;47.526;18.986;2023-01-01T04:56:21;66.93;;;41.00;;
70313;SDS011;57725;47.526;18.986;2023-01-01T04:58:47;66.28;;;41.95;;
70313;SDS011;57725;47.526;18.986;2023-01-01T05:01:21;66.65;;;41.63;;
70313;SDS011;57725;47.526;18.986;2023-01-01T05:03:48;64.88;;;41.00;;
70313;SDS011;57725;47.526;18.986;2023-01-01T05:06:14;69.32;;;42.05;;
70313;SDS011;57725;47.526;18.986;2023-01-01T05:08:41;66.72;;;41.30;;
70313;SDS011;57725;47.526;18.986;2023-01-01T05:11:09;65.50;;;39.80;;
70313;SDS011;57725;47.526;18.986;2023-01-01T05:13:41;68.43;;;40.35;;
70313;SDS011;57725;47.526;18.986;2023-01-01T05:16:08;72.50;;;41.72;;
70313;SDS011;57725;47.526;18.986;2023-01-01T05:18:36;62.45;;;39.58;;
70313;SDS011;57725;47.526;18.986;2023-01-01T05:21:03;67.30;;;41.42;;
70313;SDS011;57725;47.526;18.986;2023-01-01T05:23:31;65.30;;;41.70;;
70313;SDS011;57725;47.526;18.986;2023-01-01T05:25:57;67.85;;;43.00;;
70313;SDS011;57725;47.526;18.986;2023-01-01T05:28:23;64.28;;;40.78;;
70313;SDS011;57725;47.526;18.986;2023-01-01T05:30:49;64.60;;;41.05;;
70313;SDS011;57725;47.526;18.986;2023-01-01T05:33:15;65.78;;;41.50;;
70313;SDS011;57725;47.526;18.986;2023-01-01T05:35:41;66.30;;;40.70;;
70313;SDS011;57725;47.526;18.986;2023-01-01T05:38:06;70.78;;;42.10;;
70313;SDS011;57725;47.526;18.986;2023-01-01T05:40:31;70.72;;;42.47;;
70313;SDS011;57725;47.526;18.986;2023-01-01T05:42:57;69.93;;;43.97;;
70313;SDS011;57725;47.526;18.986;2023-01-01T05:45:22;68.13;;;44.08;;
70313;SDS011;57725;47.526;18.986;2023-01-01T05:47:48;70.03;;;43.13;;
70313;SDS011;57725;47.526;18.986;2023-01-01T05:50:13;66.82;;;42.05;;
70313;SDS011;57725;47.526;18.986;2023-01-01T05:52:39;70.43;;;45.00;;
70313;SDS011;57725;47.526;18.986;2023-01-01T05:55:04;66.18;;;42.10;;
70313;SDS011;57725;47.526;18.986;2023-01-01T05:57:32;70.35;;;42.30;;
70313;SDS011;57725;47.526;18.986;2023-01-01T05:59:58;66.72;;;42.33;;
70313;SDS011;57725;47.526;18.986;2023-01-01T06:02:23;68.50;;;42.72;;
70313;SDS011;57725;47.526;18.986;2023-01-01T06:04:49;64.03;;;41.20;;
70313;SDS011;57725;47.526;18.986;2023-01-01T06:07:14;70.88;;;43.38;;
70313;SDS011;57725;47.526;18.986;2023-01-01T06:09:39;65.45;;;42.47;;
70313;SDS011;57725;47.526;18.986;2023-01-01T06:12:05;68.35;;;42.65;;
70313;SDS011;57725;47.526;18.986;2023-01-01T06:14:31;66.20;;;42.10;;
70313;SDS011;57725;47.526;18.986;2023-01-01T06:16:56;68.88;;;42.63;;
70313;SDS011;57725;47.526;18.986;2023-01-01T06:19:22;65.82;;;42.25;;
70313;SDS011;57725;47.526;18.986;2023-01-01T06:21:47;71.18;;;43.03;;
70313;SDS011;57725;47.526;18.986;2023-01-01T06:24:12;67.30;;;41.15;;
70313;SDS011;57725;47.526;18.986;2023-01-01T06:26:38;68.30;;;42.38;;
70313;SDS011;57725;47.526;18.986;2023-01-01T06:29:03;65.35;;;41.67;;
70313;SDS011;57725;47.526;18.986;2023-01-01T06:31:29;65.40;;;42.90;;
70313;SDS011;57725;47.526;18.986;2023-01-01T06:33:55;65.82;;;42.95;;
70313;SDS011;57725;47.526;18.986;2023-01-01T06:36:22;64.13;;;41.97;;
70313;SDS011;57725;47.526;18.986;2023-01-01T06:38:49;64.38;;;41.03;;
70313;SDS011;57725;47.526;18.986;2023-01-01T06:41:19;62.55;;;41.05;;
70313;SDS011;57725;47.526;18.986;2023-01-01T06:43:47;68.13;;;42.85;;
70313;SDS011;57725;47.526;18.986;2023-01-01T06:46:15;64.90;;;41.72;;
70313;SDS011;57725;47.526;18.986;2023-01-01T06:48:42;65.75;;;41.67;;
70313;SDS011;57725;47.526;18.986;2023-01-01T06:51:16;65.40;;;40.53;;
70313;SDS011;57725;47.526;18.986;2023-01-01T06:53:46;64.25;;;41.22;;
70313;SDS011;57725;47.526;18.986;2023-01-01T06:56:12;63.88;;;41.30;;
70313;SDS011;57725;47.526;18.986;2023-01-01T06:58:38;64.13;;;42.75;;
70313;SDS011;57725;47.526;18.986;2023-01-01T07:03:40;66.57;;;41.92;;
70313;SDS011;57725;47.526;18.986;2023-01-01T07:06:06;60.60;;;39.55;;
70313;SDS011;57725;47.526;18.986;2023-01-01T07:08:35;65.38;;;41.05;;
70313;SDS011;57725;47.526;18.986;2023-01-01T07:11:01;62.05;;;41.15;;
70313;SDS011;57725;47.526;18.986;2023-01-01T07:13:27;66.70;;;40.50;;
70313;SDS011;57725;47.526;18.986;2023-01-01T07:15:54;61.65;;;40.97;;
70313;SDS011;57725;47.526;18.986;2023-01-01T07:18:20;62.45;;;40.70;;
70313;SDS011;57725;47.526;18.986;2023-01-01T07:20:51;62.13;;;41.30;;
70313;SDS011;57725;47.526;18.986;2023-01-01T07:23:18;66.03;;;41.33;;
70313;SDS011;57725;47.526;18.986;2023-01-01T07:25:44;60.03;;;38.85;;
70313;SDS011;57725;47.526;18.986;2023-01-01T07:28:09;63.33;;;41.15;;
70313;SDS011;57725;47.526;18.986;2023-01-01T07:30:36;59.20;;;38.78;;
70313;SDS011;57725;47.526;18.986;2023-01-01T07:33:01;60.83;;;38.90;;
70313;SDS011;57725;47.526;18.986;2023-01-01T07:35:27;58.03;;;38.83;;
70313;SDS011;57725;47.526;18.986;2023-01-01T07:37:55;59.45;;;38.60;;
70313;SDS011;57725;47.526;18.986;2023-01-01T07:40:20;59.50;;;39.25;;
70313;SDS011;57725;47.526;18.986;2023-01-01T07:42:46;59.15;;;39.17;;
70313;SDS011;57725;47.526;18.986;2023-01-01T07:45:12;60.75;;;41.40;;
70313;SDS011;57725;47.526;18.986;2023-01-01T07:47:38;59.65;;;39.33;;
70313;SDS011;57725;47.526;18.986;2023-01-01T07:50:03;59.85;;;40.35;;
70313;SDS011;57725;47.526;18.986;2023-01-01T07:52:29;60.33;;;40.05;;
70313;SDS011;57725;47.526;18.986;2023-01-01T07:54:54;60.65;;;40.92;;
70313;SDS011;57725;47.526;18.986;2023-01-01T07:57:20;59.25;;;38.70;;
70313;SDS011;57725;47.526;18.986;2023-01-01T07:59:45;63.08;;;40.42;;
70313;SDS011;57725;47.526;18.986;2023-01-01T08:02:11;59.53;;;38.35;;
70313;SDS011;57725;47.526;18.986;2023-01-01T08:04:37;55.70;;;36.65;;
70313;SDS011;57725;47.526;18.986;2023-01-01T08:07:02;57.03;;;36.75;;
70313;SDS011;57725;47.526;18.986;2023-01-01T08:09:28;55.67;;;37.97;;
70313;SDS011;57725;47.526;18.986;2023-01-01T08:11:53;58.35;;;38.22;;
70313;SDS011;57725;47.526;18.986;2023-01-01T08:14:19;55.67;;;37.05;;
70313;SDS011;57725;47.526;18.986;2023-01-01T08:16:44;55.88;;;38.00;;
70313;SDS011;57725;47.526;18.986;2023-01-01T08:19:09;57.33;;;37.88;;
70313;SDS011;57725;47.526;18.986;2023-01-01T08:21:35;56.67;;;36.97;;
70313;SDS011;57725;47.526;18.986;2023-01-01T08:24:00;57.85;;;37.90;;
70313;SDS011;57725;47.526;18.986;2023-01-01T08:26:30;54.78;;;36.80;;
70313;SDS011;57725;47.526;18.986;2023-01-01T08:28:57;58.83;;;38.50;;
70313;SDS011;57725;47.526;18.986;2023-01-01T08:31:23;57.08;;;37.28;;
70313;SDS011;57725;47.526;18.986;2023-01-01T08:33:48;56.42;;;37.33;;
70313;SDS011;57725;47.526;18.986;2023-01-01T08:36:16;57.80;;;37.95;;
70313;SDS011;57725;47.526;18.986;2023-01-01T08:38:48;55.38;;;37.25;;
70313;SDS011;57725;47.526;18.986;2023-01-01T08:41:14;56.58;;;37.70;;
70313;SDS011;57725;47.526;18.986;2023-01-01T08:43:39;56.78;;;37.72;;
70313;SDS011;57725;47.526;18.986;2023-01-01T08:46:05;53.17;;;37.47;;
70313;SDS011;57725;47.526;18.986;2023-01-01T08:48:30;57.33;;;37.92;;
70313;SDS011;57725;47.526;18.986;2023-01-01T08:50:56;53.38;;;37.67;;
70313;SDS011;57725;47.526;18.986;2023-01-01T08:53:25;52.38;;;35.92;;
70313;SDS011;57725;47.526;18.986;2023-01-01T08:55:58;52.33;;;35.60;;
70313;SDS011;57725;47.526;18.986;2023-01-01T08:58:25;55.50;;;37.45;;
70313;SDS011;57725;47.526;18.986;2023-01-01T09:00:51;54.10;;;35.90;;
70313;SDS011;57725;47.526;18.986;2023-01-01T09:03:18;52.83;;;36.03;;
70313;SDS011;57725;47.526;18.986;2023-01-01T09:05:44;52.88;;;35.13;;
70313;SDS011;57725;47.526;18.986;2023-01-01T09:08:10;50.08;;;34.17;;
70313;SDS011;57725;47.526;18.986;2023-01-01T09:10:36;51.80;;;35.63;;
70313;SDS011;57725;47.526;18.986;2023-01-01T09:13:02;49.67;;;33.40;;
70313;SDS011;57725;47.526;18.986;2023-01-01T09:15:27;55.35;;;36.33;;
70313;SDS011;57725;47.526;18.986;2023-01-01T09:17:52;55.33;;;36.55;;
70313;SDS011;57725;47.526;18.986;2023-01-01T09:20:18;50.53;;;34.90;;
70313;SDS011;57725;47.526;18.986;2023-01-01T09:22:43;53.92;;;36.40;;
70313;SDS011;57725;47.526;18.986;2023-01-01T09:25:08;50.15;;;33.67;;
70313;SDS011;57725;47.526;18.986;2023-01-01T09:27:34;52.33;;;34.83;;
70313;SDS011;57725;47.526;18.986;2023-01-01T09:29:59;52.92;;;35.65;;
70313;SDS011;57725;47.526;18.986;2023-01-01T09:32:25;51.72;;;35.85;;
70313;SDS011;57725;47.526;18.986;2023-01-01T09:34:50;55.38;;;36.00;;
70313;SDS011;57725;47.526;18.986;2023-01-01T09:37:15;48.25;;;33.92;;
70313;SDS011;57725;47.526;18.986;2023-01-01T09:39:41;50.65;;;34.53;;
70313;SDS011;57725;47.526;18.986;2023-01-01T09:42:11;50.63;;;33.65;;
70313;SDS011;57725;47.526;18.986;2023-01-01T09:47:40;49.80;;;34.10;;
70313;SDS011;57725;47.526;18.986;2023-01-01T09:50:13;51.30;;;33.30;;
70313;SDS011;57725;47.526;18.986;2023-01-01T09:52:52;48.75;;;33.47;;
70313;SDS011;57725;47.526;18.986;2023-01-01T09:55:25;49.03;;;34.30;;
70313;SDS011;57725;47.526;18.986;2023-01-01T09:57:53;45.95;;;32.22;;
70313;SDS011;57725;47.526;18.986;2023-01-01T10:00:19;48.00;;;32.90;;
70313;SDS011;57725;47.526;18.986;2023-01-01T10:13:35;47.53;;;31.85;;
70313;SDS011;57725;47.526;18.986;2023-01-01T10:16:22;47.90;;;32.92;;
70313;SDS011;57725;47.526;18.986;2023-01-01T10:18:56;52.63;;;34.60;;
70313;SDS011;57725;47.526;18.986;2023-01-01T10:21:25;45.80;;;31.80;;
70313;SDS011;57725;47.526;18.986;2023-01-01T10:23:56;43.28;;;31.05;;
70313;SDS011;57725;47.526;18.986;2023-01-01T10:26:27;46.22;;;31.92;;
70313;SDS011;57725;47.526;18.986;2023-01-01T10:31:45;45.75;;;31.60;;
70313;SDS011;57725;47.526;18.986;2023-01-01T10:34:14;46.65;;;30.88;;
70313;SDS011;57725;47.526;18.986;2023-01-01T10:36:41;47.33;;;31.98;;
70313;SDS011;57725;47.526;18.986;2023-01-01T10:39:08;44.58;;;32.08;;
70313;SDS011;57725;47.526;18.986;2023-01-01T10:41:42;44.15;;;30.33;;
70313;SDS011;57725;47.526;18.986;2023-01-01T10:44:08;43.38;;;30.80;;
70313;SDS011;57725;47.526;18.986;2023-01-01T10:46:36;43.50;;;29.52;;
70313;SDS011;57725;47.526;18.986;2023-01-01T10:49:07;43.20;;;29.63;;
70313;SDS011;57725;47.526;18.986;2023-01-01T10:51:36;43.75;;;29.17;;
70313;SDS011;57725;47.526;18.986;2023-01-01T10:54:52;44.83;;;30.63;;
70313;SDS011;57725;47.526;18.986;2023-01-01T10:57:45;42.15;;;30.20;;
70313;SDS011;57725;47.526;18.986;2023-01-01T10:59:51;42.72;;;29.73;;
70313;SDS011;57725;47.526;18.986;2023-01-01T11:02:21;42.75;;;29.92;;
70313;SDS011;57725;47.526;18.986;2023-01-01T11:04:49;40.85;;;28.60;;
70313;SDS011;57725;47.526;18.986;2023-01-01T11:07:17;43.75;;;29.75;;
70313;SDS011;57725;47.526;18.986;2023-01-01T11:09:48;42.58;;;29.77;;
70313;SDS011;57725;47.526;18.986;2023-01-01T11:12:18;44.45;;;30.02;;
70313;SDS011;57725;47.526;18.986;2023-01-01T11:17:21;43.60;;;29.55;;
70313;SDS011;57725;47.526;18.986;2023-01-01T11:19:51;40.97;;;28.15;;
70313;SDS011;57725;47.526;18.986;2023-01-01T11:22:34;44.20;;;29.48;;
70313;SDS011;57725;47.526;18.986;2023-01-01T11:25:00;41.38;;;28.40;;
70313;SDS011;57725;47.526;18.986;2023-01-01T11:27:26;38.45;;;28.10;;
70313;SDS011;57725;47.526;18.986;2023-01-01T11:29:55;41.53;;;27.85;;
70313;SDS011;57725;47.526;18.986;2023-01-01T11:32:43;40.88;;;28.35;;
70313;SDS011;57725;47.526;18.986;2023-01-01T11:35:14;42.75;;;28.45;;
70313;SDS011;57725;47.526;18.986;2023-01-01T11:37:47;41.65;;;28.42;;
70313;SDS011;57725;47.526;18.986;2023-01-01T11:40:19;40.88;;;28.90;;
70313;SDS011;57725;47.526;18.986;2023-01-01T11:42:49;38.95;;;26.85;;
70313;SDS011;57725;47.526;18.986;2023-01-01T11:45:22;39.55;;;27.30;;
70313;SDS011;57725;47.526;18.986;2023-01-01T11:48:00;40.50;;;27.08;;
70313;SDS011;57725;47.526;18.986;2023-01-01T11:50:29;39.60;;;27.38;;
70313;SDS011;57725;47.526;18.986;2023-01-01T11:52:58;40.50;;;26.92;;
70313;SDS011;57725;47.526;18.986;2023-01-01T11:55:41;38.67;;;27.08;;
70313;SDS011;57725;47.526;18.986;2023-01-01T12:03:43;40.63;;;27.50;;
70313;SDS011;57725;47.526;18.986;2023-01-01T12:06:22;39.85;;;27.83;;
70313;SDS011;57725;47.526;18.986;2023-01-01T12:09:12;37.95;;;26.77;;
70313;SDS011;57725;47.526;18.986;2023-01-01T12:14:25;37.88;;;26.60;;
70313;SDS011;57725;47.526;18.986;2023-01-01T12:22:49;36.45;;;26.23;;
70313;SDS011;57725;47.526;18.986;2023-01-01T12:25:17;37.28;;;26.15;;
70313;SDS011;57725;47.526;18.986;2023-01-01T12:33:17;37.17;;;26.40;;
70313;SDS011;57725;47.526;18.986;2023-01-01T12:42:00;34.67;;;24.38;;
70313;SDS011;57725;47.526;18.986;2023-01-01T12:44:44;34.88;;;24.25;;
70313;SDS011;57725;47.526;18.986;2023-01-01T12:57:45;32.67;;;23.52;;
70313;SDS011;57725;47.526;18.986;2023-01-01T13:00:17;33.65;;;23.63;;
70313;SDS011;57725;47.526;18.986;2023-01-01T13:08:07;35.80;;;24.90;;
70313;SDS011;57725;47.526;18.986;2023-01-01T13:10:34;29.23;;;21.67;;
70313;SDS011;57725;47.526;18.986;2023-01-01T13:13:03;30.08;;;22.17;;
70313;SDS011;57725;47.526;18.986;2023-01-01T13:20:45;32.35;;;23.20;;
70313;SDS011;57725;47.526;18.986;2023-01-01T13:58:55;32.40;;;22.13;;
70313;SDS011;57725;47.526;18.986;2023-01-01T14:03:59;29.85;;;21.85;;
70313;SDS011;57725;47.526;18.986;2023-01-01T14:06:48;31.00;;;22.42;;
70313;SDS011;57725;47.526;18.986;2023-01-01T14:09:16;29.10;;;20.85;;
70313;SDS011;57725;47.526;18.986;2023-01-01T14:11:44;29.17;;;20.98;;
70313;SDS011;57725;47.526;18.986;2023-01-01T14:14:22;29.83;;;21.40;;
70313;SDS011;57725;47.526;18.986;2023-01-01T14:16:50;29.35;;;21.42;;
70313;SDS011;57725;47.526;18.986;2023-01-01T14:19:16;28.63;;;20.98;;
70313;SDS011;57725;47.526;18.986;2023-01-01T14:21:42;31.63;;;21.40;;
70313;SDS011;57725;47.526;18.986;2023-01-01T14:24:09;28.77;;;20.42;;
70313;SDS011;57725;47.526;18.986;2023-01-01T14:26:40;30.23;;;21.00;;
70313;SDS011;57725;47.526;18.986;2023-01-01T14:29:06;27.70;;;20.52;;
70313;SDS011;57725;47.526;18.986;2023-01-01T14:31:35;31.33;;;22.10;;
70313;SDS011;57725;47.526;18.986;2023-01-01T14:36:37;28.38;;;19.58;;
70313;SDS011;57725;47.526;18.986;2023-01-01T14:39:24;28.52;;;19.55;;
70313;SDS011;57725;47.526;18.986;2023-01-01T14:41:54;27.13;;;19.77;;
70313;SDS011;57725;47.526;18.986;2023-01-01T14:44:26;29.50;;;20.40;;
70313;SDS011;57725;47.526;18.986;2023-01-01T14:46:58;28.30;;;19.53;;
70313;SDS011;57725;47.526;18.986;2023-01-01T14:49:42;30.15;;;20.02;;
70313;SDS011;57725;47.526;18.986;2023-01-01T14:52:21;27.67;;;20.13;;
70313;SDS011;57725;47.526;18.986;2023-01-01T14:54:50;26.38;;;19.85;;
70313;SDS011;57725;47.526;18.986;2023-01-01T14:57:18;27.38;;;19.40;;
70313;SDS011;57725;47.526;18.986;2023-01-01T14:59:48;26.60;;;19.08;;
70313;SDS011;57725;47.526;18.986;2023-01-01T15:02:22;28.23;;;19.83;;
70313;SDS011;57725;47.526;18.986;2023-01-01T15:04:49;26.35;;;19.13;;
70313;SDS011;57725;47.526;18.986;2023-01-01T15:07:28;23.35;;;17.50;;
70313;SDS011;57725;47.526;18.986;2023-01-01T15:09:55;28.20;;;19.90;;
70313;SDS011;57725;47.526;18.986;2023-01-01T15:12:25;28.85;;;20.17;;
70313;SDS011;57725;47.526;18.986;2023-01-01T15:14:52;25.40;;;18.95;;
70313;SDS011;57725;47.526;18.986;2023-01-01T15:17:20;27.13;;;18.13;;
70313;SDS011;57725;47.526;18.986;2023-01-01T15:20:03;26.65;;;19.38;;
70313;SDS011;57725;47.526;18.986;2023-01-01T15:22:30;23.90;;;18.65;;
70313;SDS011;57725;47.526;18.986;2023-01-01T15:24:59;23.63;;;17.80;;
70313;SDS011;57725;47.526;18.986;2023-01-01T15:27:27;28.17;;;19.05;;
70313;SDS011;57725;47.526;18.986;2023-01-01T15:29:54;26.77;;;19.80;;
70313;SDS011;57725;47.526;18.986;2023-01-01T15:34:58;24.42;;;17.38;;
70313;SDS011;57725;47.526;18.986;2023-01-01T15:40:00;24.17;;;18.33;;
70313;SDS011;57725;47.526;18.986;2023-01-01T15:44:53;26.33;;;18.20;;
70313;SDS011;57725;47.526;18.986;2023-01-01T15:47:19;24.33;;;17.88;;
70313;SDS011;57725;47.526;18.986;2023-01-01T15:50:05;25.23;;;18.35;;
70313;SDS011;57725;47.526;18.986;2023-01-01T15:52:31;24.83;;;17.17;;
70313;SDS011;57725;47.526;18.986;2023-01-01T15:54:58;24.90;;;17.80;;
70313;SDS011;57725;47.526;18.986;2023-01-01T15:57:23;24.52;;;17.65;;
70313;SDS011;57725;47.526;18.986;2023-01-01T15:59:49;24.30;;;17.77;;
70313;SDS011;57725;47.526;18.986;2023-01-01T16:02:23;25.17;;;17.85;;
70313;SDS011;57725;47.526;18.986;2023-01-01T16:04:54;21.80;;;16.65;;
70313;SDS011;57725;47.526;18.986;2023-01-01T16:07:20;25.92;;;18.13;;
70313;SDS011;57725;47.526;18.986;2023-01-01T16:09:48;24.00;;;17.17;;
70313;SDS011;57725;47.526;18.986;2023-01-01T16:12:21;23.30;;;16.98;;
70313;SDS011;57725;47.526;18.986;2023-01-01T16:14:46;24.08;;;17.77;;
70313;SDS011;57725;47.526;18.986;2023-01-01T16:17:13;21.67;;;15.88;;
70313;SDS011;57725;47.526;18.986;2023-01-01T16:19:41;21.98;;;17.35;;
70313;SDS011;57725;47.526;18.986;2023-01-01T16:22:10;21.98;;;16.70;;
70313;SDS011;57725;47.526;18.986;2023-01-01T16:24:38;22.38;;;17.05;;
70313;SDS011;57725;47.526;18.986;2023-01-01T16:27:03;22.30;;;16.90;;
70313;SDS011;57725;47.526;18.986;2023-01-01T16:29:29;22.45;;;16.65;;
70313;SDS011;57725;47.526;18.986;2023-01-01T16:31:54;22.80;;;16.50;;
70313;SDS011;57725;47.526;18.986;2023-01-01T16:34:20;23.33;;;16.10;;
70313;SDS011;57725;47.526;18.986;2023-01-01T16:36:46;21.60;;;15.98;;
70313;SDS011;57725;47.526;18.986;2023-01-01T16:39:11;23.75;;;17.58;;
70313;SDS011;57725;47.526;18.986;2023-01-01T16:41:41;21.80;;;16.83;;
70313;SDS011;57725;47.526;18.986;2023-01-01T16:44:11;23.63;;;16.23;;
70313;SDS011;57725;47.526;18.986;2023-01-01T16:46:40;21.67;;;16.15;;
70313;SDS011;57725;47.526;18.986;2023-01-01T16:49:06;22.63;;;16.08;;
70313;SDS011;57725;47.526;18.986;2023-01-01T16:51:31;20.98;;;15.65;;
70313;SDS011;57725;47.526;18.986;2023-01-01T16:53:58;20.63;;;15.63;;